createdAt,value
2018-06-16T13:51:07.314Z,5.13
2018-06-16T13:53:37.050Z,4.13
2018-06-16T13:56:08.243Z,4.60
2018-06-16T13:58:36.766Z,3.90
2018-06-16T14:01:05.639Z,3.70
2018-06-16T14:03:34.766Z,3.87
2018-06-16T14:06:03.608Z,4.03
2018-06-16T14:08:33.142Z,3.90
2018-06-16T14:11:01.625Z,5.33
2018-06-16T14:13:30.849Z,4.23
2018-06-16T14:15:59.361Z,4.00
2018-06-16T14:21:58.791Z,4.27
2018-06-16T14:24:27.294Z,3.87
2018-06-16T14:26:55.797Z,4.07
2018-06-16T14:29:24.274Z,5.10
2018-06-16T14:31:52.766Z,3.90
2018-06-16T14:34:21.498Z,3.97
2018-06-16T14:36:50.004Z,5.50
2018-06-16T14:39:19.137Z,7.17
2018-06-16T14:41:47.992Z,4.13
2018-06-16T14:44:16.850Z,3.90
2018-06-16T14:46:45.694Z,3.37
2018-06-16T14:49:15.902Z,3.33
2018-06-16T14:51:44.398Z,3.87
2018-06-16T14:54:13.663Z,3.87
2018-06-16T14:56:43.361Z,4.00
2018-06-16T14:59:13.249Z,4.10
2018-06-16T15:01:42.455Z,3.93
2018-06-16T15:04:12.343Z,4.33
2018-06-16T15:06:41.189Z,4.00
2018-06-16T15:09:12.322Z,4.07
2018-06-16T15:11:42.163Z,3.77
2018-06-16T15:14:17.655Z,3.53
2018-06-16T15:16:53.306Z,3.43
2018-06-16T15:19:22.217Z,4.20
2018-06-16T15:21:50.706Z,3.60
2018-06-16T15:24:19.198Z,3.63
2018-06-16T15:26:49.098Z,3.57
2018-06-16T15:29:17.921Z,4.00
2018-06-16T15:31:46.803Z,4.00
2018-06-16T15:34:15.268Z,3.93
2018-06-16T15:36:43.782Z,3.97
2018-06-16T15:39:12.255Z,4.17
2018-06-16T15:41:41.476Z,4.00
2018-06-16T15:44:10.514Z,3.43
2018-06-16T15:46:39.044Z,3.43
2018-06-16T15:49:07.646Z,3.23
2018-06-16T15:51:36.527Z,3.70
2018-06-16T15:54:05.274Z,3.60
2018-06-16T15:56:34.759Z,3.20
2018-06-16T15:59:03.695Z,4.07
2018-06-16T16:01:32.159Z,3.20
2018-06-16T16:04:00.646Z,3.73
2018-06-16T16:06:29.171Z,3.80
2018-06-16T16:08:57.618Z,3.70
2018-06-16T16:11:26.111Z,3.33
2018-06-16T16:13:54.727Z,3.60
2018-06-16T16:16:23.266Z,2.73
2018-06-16T16:18:51.790Z,3.20
2018-06-16T16:21:20.311Z,3.07
2018-06-16T16:23:49.378Z,2.97
2018-06-16T16:26:17.846Z,3.00
2018-06-16T16:28:46.582Z,3.10
2018-06-16T16:31:15.574Z,3.20
2018-06-16T16:33:44.967Z,3.40
2018-06-16T16:36:14.508Z,4.20
2018-06-16T16:38:43.338Z,3.80
2018-06-16T16:41:14.710Z,4.27
2018-06-16T16:43:43.173Z,3.40
2018-06-16T16:46:12.611Z,19.77
2018-06-16T16:48:41.246Z,3.70
2018-06-16T16:51:09.742Z,8.70
2018-06-16T16:53:39.474Z,15.20
2018-06-16T16:56:07.954Z,11.37
2018-06-16T16:58:36.415Z,8.27
2018-06-16T17:01:04.944Z,4.70
2018-06-16T17:03:35.167Z,9.63
2018-06-16T17:06:03.678Z,6.20
2018-06-16T17:08:32.147Z,8.57
2018-06-16T17:11:00.939Z,5.63
2018-06-16T17:13:29.409Z,6.77
2018-06-16T17:15:57.883Z,4.73
2018-06-16T17:18:26.664Z,4.27
2018-06-16T17:20:56.211Z,5.10
2018-06-16T17:23:24.902Z,4.93
2018-06-16T17:25:53.398Z,4.00
2018-06-16T17:28:21.942Z,5.03
2018-06-16T17:30:50.809Z,4.40
2018-06-16T17:33:20.941Z,4.93
2018-06-16T17:35:49.723Z,5.17
2018-06-16T17:38:18.721Z,4.53
2018-06-16T17:40:47.498Z,4.30
2018-06-16T17:43:16.454Z,4.67
2018-06-16T17:45:45.200Z,4.77
2018-06-16T17:48:13.689Z,5.53
2018-06-16T17:50:43.895Z,5.23
2018-06-16T17:53:14.268Z,4.93
2018-06-16T17:55:44.258Z,5.30
2018-06-16T17:58:13.674Z,4.13
2018-06-16T18:00:42.474Z,4.83
2018-06-16T18:03:10.992Z,4.23
2018-06-16T18:05:39.498Z,3.97
2018-06-16T18:08:08.940Z,5.27
2018-06-16T18:10:37.951Z,4.67
2018-06-16T18:13:06.981Z,4.23
2018-06-16T18:15:35.524Z,4.53
2018-06-16T18:18:04.136Z,5.23
2018-06-16T18:20:33.183Z,5.20
2018-06-16T18:23:02.306Z,4.83
2018-06-16T18:25:31.891Z,6.03
2018-06-16T18:28:02.309Z,5.80
2018-06-16T18:30:32.578Z,6.00
2018-06-16T18:33:01.856Z,6.43
2018-06-16T18:35:30.675Z,6.00
2018-06-16T18:38:00.174Z,6.43
2018-06-16T18:40:28.787Z,6.97
2018-06-16T18:42:57.523Z,6.70
2018-06-16T18:45:26.034Z,7.93
2018-06-16T18:47:54.750Z,7.97
2018-06-16T18:50:24.221Z,7.47
2018-06-16T18:52:53.409Z,7.47
2018-06-16T18:55:21.894Z,7.33
2018-06-16T18:57:51.247Z,7.07
2018-06-16T19:00:21.012Z,8.07
2018-06-16T19:02:49.760Z,8.77
2018-06-16T19:05:18.228Z,7.97
2018-06-16T19:07:47.038Z,8.80
2018-06-16T19:10:15.793Z,8.60
2018-06-16T19:12:44.295Z,8.10
2018-06-16T19:15:12.798Z,7.47
2018-06-16T19:17:41.352Z,8.63
2018-06-16T19:20:09.822Z,8.80
2018-06-16T19:22:38.485Z,8.17
2018-06-16T19:25:07.393Z,9.60
2018-06-16T19:27:35.862Z,9.47
2018-06-16T19:30:04.763Z,8.10
2018-06-16T19:32:34.142Z,7.93
2018-06-16T19:35:02.595Z,7.63
2018-06-16T19:37:31.053Z,7.30
2018-06-16T19:39:59.537Z,7.33
2018-06-16T19:42:27.990Z,6.90
2018-06-16T19:44:56.473Z,7.00
2018-06-16T19:47:25.215Z,6.57
2018-06-16T19:49:53.679Z,7.47
2018-06-16T19:52:22.133Z,7.80
2018-06-16T19:54:50.604Z,8.60
2018-06-16T19:57:19.068Z,8.60
2018-06-16T19:59:47.547Z,9.17
2018-06-16T20:02:16.055Z,7.80
2018-06-16T20:04:44.559Z,8.17
2018-06-16T20:07:13.035Z,9.23
2018-06-16T20:09:41.507Z,8.27
2018-06-16T20:12:09.979Z,8.73
2018-06-16T20:14:38.755Z,8.50
2018-06-16T20:17:07.860Z,8.43
2018-06-16T20:19:36.330Z,9.47
2018-06-16T20:22:05.379Z,8.83
2018-06-16T20:24:33.859Z,9.50
2018-06-16T20:27:02.350Z,9.43
2018-06-16T20:29:30.891Z,9.07
2018-06-16T20:31:59.438Z,9.33
2018-06-16T20:34:28.272Z,9.67
2018-06-16T20:36:57.102Z,8.53
2018-06-16T20:39:25.933Z,9.83
2018-06-16T20:41:54.419Z,9.67
2018-06-16T20:44:22.895Z,9.87
2018-06-16T20:46:51.378Z,9.87
2018-06-16T20:49:19.842Z,10.33
2018-06-16T20:51:48.356Z,10.03
2018-06-16T20:54:17.097Z,10.67
2018-06-16T20:56:45.581Z,9.50
2018-06-16T20:59:14.074Z,10.10
2018-06-16T21:01:42.560Z,10.43
2018-06-16T21:04:11.031Z,10.30
2018-06-16T21:06:39.556Z,10.73
2018-06-16T21:09:10.061Z,10.93
2018-06-16T21:11:38.569Z,10.23
2018-06-16T21:14:07.090Z,10.07
2018-06-16T21:16:35.789Z,10.83
2018-06-16T21:19:04.727Z,10.63
2018-06-16T21:21:33.227Z,11.10
2018-06-16T21:24:01.864Z,10.23
2018-06-16T21:26:30.347Z,10.83
2018-06-16T21:28:58.829Z,11.20
2018-06-16T21:31:27.323Z,11.60
2018-06-16T21:33:55.821Z,11.37
2018-06-16T21:36:24.301Z,10.93
2018-06-16T21:38:52.800Z,11.73
2018-06-16T21:41:21.291Z,10.50
2018-06-16T21:43:49.798Z,12.00
2018-06-16T21:46:18.285Z,11.13
2018-06-16T21:48:46.762Z,12.03
2018-06-16T21:51:15.245Z,12.20
2018-06-16T21:53:43.714Z,11.70
2018-06-16T21:56:12.180Z,13.10
2018-06-16T21:58:40.674Z,13.27
2018-06-16T22:01:09.387Z,12.47
2018-06-16T22:03:37.569Z,12.23
2018-06-16T22:06:06.066Z,12.40
2018-06-16T22:08:34.582Z,12.30
2018-06-16T22:11:04.352Z,12.77
2018-06-16T22:13:32.865Z,12.33
2018-06-16T22:16:01.357Z,13.73
2018-06-16T22:18:29.823Z,12.87
2018-06-16T22:20:58.312Z,13.63
2018-06-16T22:23:26.773Z,13.13
2018-06-16T22:25:54.920Z,14.47
2018-06-16T22:28:23.476Z,14.20
2018-06-16T22:30:51.998Z,14.13
2018-06-16T22:33:20.485Z,12.67
2018-06-16T22:35:49.575Z,14.30
2018-06-16T22:38:18.047Z,13.03
2018-06-16T22:40:46.506Z,14.43
2018-06-16T22:43:14.959Z,13.13
2018-06-16T22:45:43.422Z,13.73
2018-06-16T22:48:11.887Z,14.50
2018-06-16T22:50:40.375Z,14.27
2018-06-16T22:53:08.834Z,15.57
2018-06-16T22:55:37.302Z,15.13
2018-06-16T22:58:05.818Z,14.60
2018-06-16T23:00:34.730Z,14.17
2018-06-16T23:03:03.253Z,14.43
2018-06-16T23:05:31.751Z,16.03
2018-06-16T23:08:00.235Z,15.23
2018-06-16T23:10:28.779Z,14.33
2018-06-16T23:12:57.248Z,14.77
2018-06-16T23:15:25.731Z,14.10
2018-06-16T23:17:54.197Z,15.17
2018-06-16T23:20:22.689Z,15.33
2018-06-16T23:22:51.695Z,15.57
2018-06-16T23:25:20.183Z,15.37
2018-06-16T23:27:48.670Z,15.67
2018-06-16T23:30:17.163Z,16.77
2018-06-16T23:32:45.635Z,16.70
2018-06-16T23:35:14.107Z,16.87
2018-06-16T23:37:42.591Z,16.67
2018-06-16T23:40:11.061Z,16.57
2018-06-16T23:42:39.544Z,16.97
2018-06-16T23:45:08.032Z,17.30
2018-06-16T23:47:36.495Z,16.90
2018-06-16T23:50:05.341Z,17.60
2018-06-16T23:52:33.833Z,17.47
2018-06-16T23:55:02.320Z,17.63
2018-06-16T23:57:30.884Z,17.97
2018-06-16T23:59:59.406Z,18.43
